sensor_id;sensor_type;location;lat;lon;timestamp;P1;durP1;ratioP1;P2;durP2;ratioP2
6424;SDS011;12193;42.642;23.384;2022-10-16T00:01:55;16.00;;;9.37;;
6424;SDS011;12193;42.642;23.384;2022-10-16T00:04:24;15.93;;;8.57;;
6424;SDS011;12193;42.642;23.384;2022-10-16T04:08:29;11.67;;;7.30;;
6424;SDS011;12193;42.642;23.384;2022-10-16T04:11:00;13.83;;;7.57;;
6424;SDS011;12193;42.642;23.384;2022-10-16T04:13:30;14.57;;;7.87;;
6424;SDS011;12193;42.642;23.384;2022-10-16T04:16:00;12.37;;;7.00;;
6424;SDS011;12193;42.642;23.384;2022-10-16T04:18:29;14.43;;;8.27;;
6424;SDS011;12193;42.642;23.384;2022-10-16T04:21:01;14.60;;;8.03;;
6424;SDS011;12193;42.642;23.384;2022-10-16T04:23:34;13.20;;;7.20;;
6424;SDS011;12193;42.642;23.384;2022-10-16T04:26:04;13.70;;;7.40;;
6424;SDS011;12193;42.642;23.384;2022-10-16T04:28:34;12.10;;;6.63;;
6424;SDS011;12193;42.642;23.384;2022-10-16T04:31:03;15.93;;;7.70;;
6424;SDS011;12193;42.642;23.384;2022-10-16T04:33:32;13.90;;;7.47;;
6424;SDS011;12193;42.642;23.384;2022-10-16T04:36:02;18.83;;;7.10;;
6424;SDS011;12193;42.642;23.384;2022-10-16T04:38:35;11.80;;;6.87;;
6424;SDS011;12193;42.642;23.384;2022-10-16T04:41:05;13.83;;;7.67;;
6424;SDS011;12193;42.642;23.384;2022-10-16T04:43:35;11.53;;;7.10;;
6424;SDS011;12193;42.642;23.384;2022-10-16T04:46:05;12.60;;;7.30;;
6424;SDS011;12193;42.642;23.384;2022-10-16T04:48:35;12.53;;;6.53;;
6424;SDS011;12193;42.642;23.384;2022-10-16T04:51:04;11.67;;;6.90;;
6424;SDS011;12193;42.642;23.384;2022-10-16T04:53:36;11.60;;;6.27;;
6424;SDS011;12193;42.642;23.384;2022-10-16T04:56:06;12.33;;;6.83;;
6424;SDS011;12193;42.642;23.384;2022-10-16T04:58:35;13.83;;;7.40;;
6424;SDS011;12193;42.642;23.384;2022-10-16T05:01:04;12.23;;;7.37;;
6424;SDS011;12193;42.642;23.384;2022-10-16T05:03:33;12.37;;;7.10;;
6424;SDS011;12193;42.642;23.384;2022-10-16T05:06:04;11.83;;;6.97;;
6424;SDS011;12193;42.642;23.384;2022-10-16T05:08:37;10.27;;;6.37;;
6424;SDS011;12193;42.642;23.384;2022-10-16T05:11:06;11.63;;;6.10;;
6424;SDS011;12193;42.642;23.384;2022-10-16T05:13:35;10.73;;;6.60;;
6424;SDS011;12193;42.642;23.384;2022-10-16T05:16:05;10.23;;;6.77;;
6424;SDS011;12193;42.642;23.384;2022-10-16T05:18:35;10.23;;;6.67;;
6424;SDS011;12193;42.642;23.384;2022-10-16T05:21:04;8.30;;;5.17;;
6424;SDS011;12193;42.642;23.384;2022-10-16T05:23:33;11.50;;;6.83;;
6424;SDS011;12193;42.642;23.384;2022-10-16T05:26:05;10.77;;;6.20;;
6424;SDS011;12193;42.642;23.384;2022-10-16T05:28:34;14.10;;;7.07;;
6424;SDS011;12193;42.642;23.384;2022-10-16T05:31:04;11.10;;;6.17;;
6424;SDS011;12193;42.642;23.384;2022-10-16T05:33:34;10.77;;;6.83;;
6424;SDS011;12193;42.642;23.384;2022-10-16T05:36:03;10.43;;;6.27;;
6424;SDS011;12193;42.642;23.384;2022-10-16T05:38:34;13.03;;;6.87;;
6424;SDS011;12193;42.642;23.384;2022-10-16T05:41:06;10.80;;;5.87;;
6424;SDS011;12193;42.642;23.384;2022-10-16T05:43:35;12.37;;;6.90;;
6424;SDS011;12193;42.642;23.384;2022-10-16T05:46:05;12.10;;;6.47;;
6424;SDS011;12193;42.642;23.384;2022-10-16T05:48:34;11.93;;;6.63;;
6424;SDS011;12193;42.642;23.384;2022-10-16T05:51:04;10.73;;;6.53;;
6424;SDS011;12193;42.642;23.384;2022-10-16T05:53:36;10.57;;;6.60;;
6424;SDS011;12193;42.642;23.384;2022-10-16T05:56:10;8.43;;;5.70;;
6424;SDS011;12193;42.642;23.384;2022-10-16T05:58:40;9.73;;;5.80;;
6424;SDS011;12193;42.642;23.384;2022-10-16T06:01:11;9.83;;;5.87;;
6424;SDS011;12193;42.642;23.384;2022-10-16T06:03:42;9.00;;;6.03;;
6424;SDS011;12193;42.642;23.384;2022-10-16T06:06:12;8.97;;;5.70;;
6424;SDS011;12193;42.642;23.384;2022-10-16T06:08:42;10.43;;;6.43;;
6424;SDS011;12193;42.642;23.384;2022-10-16T06:11:17;7.67;;;4.47;;
6424;SDS011;12193;42.642;23.384;2022-10-16T06:13:49;10.23;;;6.37;;
6424;SDS011;12193;42.642;23.384;2022-10-16T06:16:19;7.77;;;5.73;;
6424;SDS011;12193;42.642;23.384;2022-10-16T06:18:50;9.80;;;5.53;;
6424;SDS011;12193;42.642;23.384;2022-10-16T06:21:20;7.87;;;4.67;;
6424;SDS011;12193;42.642;23.384;2022-10-16T06:23:52;7.70;;;4.90;;
6424;SDS011;12193;42.642;23.384;2022-10-16T06:26:24;8.07;;;5.53;;
6424;SDS011;12193;42.642;23.384;2022-10-16T06:28:55;6.90;;;4.97;;
6424;SDS011;12193;42.642;23.384;2022-10-16T06:31:25;7.00;;;5.00;;
6424;SDS011;12193;42.642;23.384;2022-10-16T06:33:56;6.73;;;4.70;;
6424;SDS011;12193;42.642;23.384;2022-10-16T06:36:26;7.93;;;5.10;;
6424;SDS011;12193;42.642;23.384;2022-10-16T06:38:56;9.07;;;4.87;;
6424;SDS011;12193;42.642;23.384;2022-10-16T06:41:27;6.93;;;4.87;;
6424;SDS011;12193;42.642;23.384;2022-10-16T06:43:57;7.60;;;5.23;;
6424;SDS011;12193;42.642;23.384;2022-10-16T06:46:26;8.10;;;5.40;;
6424;SDS011;12193;42.642;23.384;2022-10-16T06:48:57;8.37;;;5.30;;
6424;SDS011;12193;42.642;23.384;2022-10-16T06:51:26;9.03;;;5.57;;
6424;SDS011;12193;42.642;23.384;2022-10-16T06:53:57;9.50;;;5.67;;
6424;SDS011;12193;42.642;23.384;2022-10-16T06:56:30;11.63;;;6.03;;
6424;SDS011;12193;42.642;23.384;2022-10-16T06:59:00;9.80;;;6.27;;
6424;SDS011;12193;42.642;23.384;2022-10-16T07:01:30;10.33;;;6.27;;
6424;SDS011;12193;42.642;23.384;2022-10-16T07:04:00;10.37;;;6.60;;
6424;SDS011;12193;42.642;23.384;2022-10-16T07:06:31;10.30;;;6.27;;
6424;SDS011;12193;42.642;23.384;2022-10-16T07:09:02;11.33;;;7.00;;
6424;SDS011;12193;42.642;23.384;2022-10-16T07:11:36;15.53;;;7.27;;
6424;SDS011;12193;42.642;23.384;2022-10-16T07:14:10;11.60;;;7.23;;
6424;SDS011;12193;42.642;23.384;2022-10-16T07:16:42;13.27;;;7.00;;
6424;SDS011;12193;42.642;23.384;2022-10-16T07:19:12;17.37;;;7.70;;
6424;SDS011;12193;42.642;23.384;2022-10-16T07:21:43;12.20;;;7.53;;
6424;SDS011;12193;42.642;23.384;2022-10-16T07:24:13;13.67;;;7.60;;
6424;SDS011;12193;42.642;23.384;2022-10-16T07:26:46;14.70;;;7.73;;
6424;SDS011;12193;42.642;23.384;2022-10-16T07:29:17;13.87;;;7.87;;
6424;SDS011;12193;42.642;23.384;2022-10-16T07:31:49;12.77;;;8.13;;
6424;SDS011;12193;42.642;23.384;2022-10-16T07:34:18;13.63;;;8.03;;
6424;SDS011;12193;42.642;23.384;2022-10-16T07:36:50;19.13;;;9.13;;
6424;SDS011;12193;42.642;23.384;2022-10-16T07:39:19;16.63;;;8.60;;
6424;SDS011;12193;42.642;23.384;2022-10-16T07:41:51;13.17;;;7.87;;
6424;SDS011;12193;42.642;23.384;2022-10-16T07:44:20;15.03;;;7.97;;
6424;SDS011;12193;42.642;23.384;2022-10-16T07:46:50;15.37;;;8.00;;
6424;SDS011;12193;42.642;23.384;2022-10-16T07:49:19;13.30;;;7.73;;
6424;SDS011;12193;42.642;23.384;2022-10-16T07:51:48;12.00;;;7.70;;
6424;SDS011;12193;42.642;23.384;2022-10-16T07:54:17;17.97;;;7.37;;
6424;SDS011;12193;42.642;23.384;2022-10-16T07:56:46;12.47;;;7.83;;
6424;SDS011;12193;42.642;23.384;2022-10-16T07:59:18;15.47;;;7.27;;
6424;SDS011;12193;42.642;23.384;2022-10-16T08:01:48;12.93;;;6.27;;
6424;SDS011;12193;42.642;23.384;2022-10-16T08:04:17;11.30;;;5.77;;
6424;SDS011;12193;42.642;23.384;2022-10-16T08:06:46;10.50;;;6.07;;
6424;SDS011;12193;42.642;23.384;2022-10-16T08:09:16;8.40;;;5.80;;
6424;SDS011;12193;42.642;23.384;2022-10-16T08:11:45;8.77;;;5.93;;
6424;SDS011;12193;42.642;23.384;2022-10-16T08:14:14;11.73;;;5.97;;
6424;SDS011;12193;42.642;23.384;2022-10-16T08:16:46;10.63;;;6.40;;
6424;SDS011;12193;42.642;23.384;2022-10-16T08:19:15;8.27;;;5.97;;
6424;SDS011;12193;42.642;23.384;2022-10-16T08:21:46;11.77;;;5.73;;
6424;SDS011;12193;42.642;23.384;2022-10-16T08:24:16;10.50;;;5.90;;
6424;SDS011;12193;42.642;23.384;2022-10-16T08:26:45;9.23;;;5.70;;
6424;SDS011;12193;42.642;23.384;2022-10-16T08:29:14;9.07;;;5.70;;
6424;SDS011;12193;42.642;23.384;2022-10-16T08:31:46;9.80;;;5.80;;
6424;SDS011;12193;42.642;23.384;2022-10-16T08:34:16;11.60;;;5.90;;
6424;SDS011;12193;42.642;23.384;2022-10-16T08:36:45;8.27;;;5.47;;
6424;SDS011;12193;42.642;23.384;2022-10-16T08:39:15;9.33;;;5.13;;
6424;SDS011;12193;42.642;23.384;2022-10-16T08:48:02;6.77;;;4.90;;
6424;SDS011;12193;42.642;23.384;2022-10-16T08:50:39;7.93;;;5.30;;
6424;SDS011;12193;42.642;23.384;2022-10-16T08:53:10;10.30;;;4.73;;
6424;SDS011;12193;42.642;23.384;2022-10-16T08:55:46;4.60;;;3.80;;
6424;SDS011;12193;42.642;23.384;2022-10-16T08:58:20;9.30;;;4.57;;
6424;SDS011;12193;42.642;23.384;2022-10-16T09:00:52;9.73;;;4.60;;
6424;SDS011;12193;42.642;23.384;2022-10-16T09:03:32;8.13;;;4.77;;
6424;SDS011;12193;42.642;23.384;2022-10-16T09:06:17;7.03;;;4.30;;
6424;SDS011;12193;42.642;23.384;2022-10-16T09:09:02;15.13;;;5.00;;
6424;SDS011;12193;42.642;23.384;2022-10-16T09:11:45;7.90;;;4.53;;
6424;SDS011;12193;42.642;23.384;2022-10-16T09:14:25;6.70;;;4.30;;
6424;SDS011;12193;42.642;23.384;2022-10-16T09:17:07;9.00;;;4.30;;
6424;SDS011;12193;42.642;23.384;2022-10-16T09:19:53;6.77;;;4.43;;
6424;SDS011;12193;42.642;23.384;2022-10-16T09:22:27;5.67;;;3.80;;
6424;SDS011;12193;42.642;23.384;2022-10-16T09:24:58;5.33;;;3.67;;
6424;SDS011;12193;42.642;23.384;2022-10-16T09:27:30;9.67;;;3.90;;
6424;SDS011;12193;42.642;23.384;2022-10-16T09:29:59;6.80;;;3.93;;
6424;SDS011;12193;42.642;23.384;2022-10-16T09:32:28;6.57;;;3.43;;
6424;SDS011;12193;42.642;23.384;2022-10-16T09:35:01;8.43;;;3.87;;
6424;SDS011;12193;42.642;23.384;2022-10-16T09:37:31;6.20;;;3.40;;
6424;SDS011;12193;42.642;23.384;2022-10-16T09:40:00;4.37;;;3.03;;
6424;SDS011;12193;42.642;23.384;2022-10-16T09:42:30;5.63;;;3.40;;
6424;SDS011;12193;42.642;23.384;2022-10-16T09:45:03;7.10;;;3.50;;
6424;SDS011;12193;42.642;23.384;2022-10-16T09:47:35;4.43;;;3.40;;
6424;SDS011;12193;42.642;23.384;2022-10-16T09:50:20;4.90;;;3.20;;
6424;SDS011;12193;42.642;23.384;2022-10-16T09:53:02;6.53;;;3.50;;
6424;SDS011;12193;42.642;23.384;2022-10-16T09:55:33;10.40;;;4.00;;
6424;SDS011;12193;42.642;23.384;2022-10-16T09:58:02;10.47;;;4.70;;
6424;SDS011;12193;42.642;23.384;2022-10-16T10:00:31;8.50;;;4.00;;
6424;SDS011;12193;42.642;23.384;2022-10-16T10:03:01;6.03;;;3.77;;
6424;SDS011;12193;42.642;23.384;2022-10-16T10:05:40;7.17;;;3.80;;
6424;SDS011;12193;42.642;23.384;2022-10-16T10:08:17;5.83;;;3.90;;
6424;SDS011;12193;42.642;23.384;2022-10-16T10:10:47;6.30;;;3.73;;
6424;SDS011;12193;42.642;23.384;2022-10-16T10:13:18;6.93;;;3.90;;
6424;SDS011;12193;42.642;23.384;2022-10-16T10:15:49;5.10;;;3.77;;
6424;SDS011;12193;42.642;23.384;2022-10-16T10:18:20;6.10;;;4.23;;
6424;SDS011;12193;42.642;23.384;2022-10-16T10:21:01;7.10;;;4.03;;
6424;SDS011;12193;42.642;23.384;2022-10-16T10:23:31;8.77;;;4.00;;
6424;SDS011;12193;42.642;23.384;2022-10-16T10:26:01;6.20;;;4.17;;
6424;SDS011;12193;42.642;23.384;2022-10-16T10:28:44;6.73;;;4.27;;
6424;SDS011;12193;42.642;23.384;2022-10-16T10:31:24;5.07;;;3.97;;
6424;SDS011;12193;42.642;23.384;2022-10-16T10:33:58;6.47;;;4.00;;
6424;SDS011;12193;42.642;23.384;2022-10-16T10:36:37;8.13;;;4.20;;
6424;SDS011;12193;42.642;23.384;2022-10-16T10:39:08;6.67;;;3.63;;
6424;SDS011;12193;42.642;23.384;2022-10-16T10:47:47;6.30;;;3.77;;
6424;SDS011;12193;42.642;23.384;2022-10-16T10:50:34;4.80;;;3.70;;
6424;SDS011;12193;42.642;23.384;2022-10-16T10:53:16;6.47;;;3.50;;
6424;SDS011;12193;42.642;23.384;2022-10-16T10:55:54;5.13;;;3.77;;
6424;SDS011;12193;42.642;23.384;2022-10-16T10:58:44;5.53;;;3.20;;
6424;SDS011;12193;42.642;23.384;2022-10-16T11:01:31;8.73;;;3.37;;
6424;SDS011;12193;42.642;23.384;2022-10-16T11:04:15;4.90;;;2.93;;
6424;SDS011;12193;42.642;23.384;2022-10-16T11:07:02;5.07;;;3.27;;
6424;SDS011;12193;42.642;23.384;2022-10-16T11:09:38;3.20;;;2.70;;
6424;SDS011;12193;42.642;23.384;2022-10-16T11:12:14;5.10;;;2.53;;
6424;SDS011;12193;42.642;23.384;2022-10-16T11:14:48;2.97;;;2.20;;
6424;SDS011;12193;42.642;23.384;2022-10-16T11:17:25;3.83;;;2.40;;
6424;SDS011;12193;42.642;23.384;2022-10-16T11:20:00;3.07;;;2.10;;
6424;SDS011;12193;42.642;23.384;2022-10-16T11:22:36;4.73;;;2.27;;
6424;SDS011;12193;42.642;23.384;2022-10-16T11:25:14;4.17;;;2.40;;
6424;SDS011;12193;42.642;23.384;2022-10-16T11:27:50;3.17;;;2.30;;
6424;SDS011;12193;42.642;23.384;2022-10-16T11:30:24;2.77;;;2.37;;
6424;SDS011;12193;42.642;23.384;2022-10-16T11:33:04;6.90;;;2.80;;
6424;SDS011;12193;42.642;23.384;2022-10-16T11:35:52;8.97;;;3.00;;
6424;SDS011;12193;42.642;23.384;2022-10-16T11:38:28;4.73;;;2.93;;
6424;SDS011;12193;42.642;23.384;2022-10-16T11:41:04;5.30;;;3.00;;
6424;SDS011;12193;42.642;23.384;2022-10-16T11:43:45;4.77;;;2.57;;
6424;SDS011;12193;42.642;23.384;2022-10-16T11:46:21;2.90;;;2.27;;
6424;SDS011;12193;42.642;23.384;2022-10-16T11:48:55;4.17;;;2.50;;
6424;SDS011;12193;42.642;23.384;2022-10-16T11:51:31;5.23;;;2.60;;
6424;SDS011;12193;42.642;23.384;2022-10-16T11:54:07;2.70;;;2.40;;
6424;SDS011;12193;42.642;23.384;2022-10-16T11:56:46;6.10;;;3.07;;
6424;SDS011;12193;42.642;23.384;2022-10-16T11:59:20;6.90;;;2.97;;
6424;SDS011;12193;42.642;23.384;2022-10-16T12:01:59;4.13;;;2.73;;
6424;SDS011;12193;42.642;23.384;2022-10-16T12:04:53;3.63;;;2.93;;
6424;SDS011;12193;42.642;23.384;2022-10-16T12:07:35;6.97;;;2.80;;
6424;SDS011;12193;42.642;23.384;2022-10-16T12:10:17;3.47;;;2.70;;
6424;SDS011;12193;42.642;23.384;2022-10-16T12:12:51;4.17;;;3.00;;
6424;SDS011;12193;42.642;23.384;2022-10-16T12:15:23;4.23;;;2.93;;
6424;SDS011;12193;42.642;23.384;2022-10-16T12:17:53;6.43;;;3.40;;
6424;SDS011;12193;42.642;23.384;2022-10-16T12:20:24;4.37;;;2.80;;
6424;SDS011;12193;42.642;23.384;2022-10-16T12:22:57;3.60;;;2.70;;
6424;SDS011;12193;42.642;23.384;2022-10-16T12:25:29;4.30;;;3.03;;
6424;SDS011;12193;42.642;23.384;2022-10-16T12:28:03;4.23;;;2.87;;
6424;SDS011;12193;42.642;23.384;2022-10-16T12:30:35;5.30;;;3.00;;
6424;SDS011;12193;42.642;23.384;2022-10-16T12:33:05;4.73;;;2.77;;
6424;SDS011;12193;42.642;23.384;2022-10-16T12:35:48;4.90;;;2.70;;
6424;SDS011;12193;42.642;23.384;2022-10-16T12:38:18;4.20;;;2.73;;
6424;SDS011;12193;42.642;23.384;2022-10-16T12:40:54;3.97;;;3.27;;
6424;SDS011;12193;42.642;23.384;2022-10-16T12:43:35;8.93;;;2.80;;
6424;SDS011;12193;42.642;23.384;2022-10-16T12:46:22;3.47;;;2.50;;
6424;SDS011;12193;42.642;23.384;2022-10-16T12:49:06;4.43;;;3.10;;
6424;SDS011;12193;42.642;23.384;2022-10-16T12:51:48;8.30;;;3.33;;
6424;SDS011;12193;42.642;23.384;2022-10-16T12:54:17;7.63;;;3.20;;
6424;SDS011;12193;42.642;23.384;2022-10-16T12:56:51;4.27;;;2.70;;
6424;SDS011;12193;42.642;23.384;2022-10-16T12:59:42;5.33;;;3.23;;
6424;SDS011;12193;42.642;23.384;2022-10-16T13:05:20;3.80;;;2.70;;
6424;SDS011;12193;42.642;23.384;2022-10-16T13:08:06;3.70;;;3.03;;
6424;SDS011;12193;42.642;23.384;2022-10-16T13:10:52;4.73;;;3.30;;
6424;SDS011;12193;42.642;23.384;2022-10-16T13:13:38;4.63;;;3.00;;
6424;SDS011;12193;42.642;23.384;2022-10-16T13:16:21;4.73;;;3.50;;
6424;SDS011;12193;42.642;23.384;2022-10-16T13:19:01;4.90;;;3.20;;
6424;SDS011;12193;42.642;23.384;2022-10-16T13:21:43;3.77;;;2.83;;
6424;SDS011;12193;42.642;23.384;2022-10-16T13:24:23;3.60;;;3.00;;
6424;SDS011;12193;42.642;23.384;2022-10-16T13:27:06;4.17;;;2.97;;
6424;SDS011;12193;42.642;23.384;2022-10-16T13:29:42;4.67;;;2.90;;
6424;SDS011;12193;42.642;23.384;2022-10-16T13:32:14;4.97;;;2.90;;
6424;SDS011;12193;42.642;23.384;2022-10-16T13:34:45;4.57;;;3.03;;
6424;SDS011;12193;42.642;23.384;2022-10-16T13:37:16;4.43;;;2.80;;
6424;SDS011;12193;42.642;23.384;2022-10-16T13:39:47;3.70;;;2.70;;
6424;SDS011;12193;42.642;23.384;2022-10-16T13:42:20;5.23;;;3.00;;
6424;SDS011;12193;42.642;23.384;2022-10-16T13:44:53;4.30;;;2.77;;
6424;SDS011;12193;42.642;23.384;2022-10-16T13:47:27;3.93;;;2.90;;
6424;SDS011;12193;42.642;23.384;2022-10-16T13:49:59;7.23;;;3.83;;
6424;SDS011;12193;42.642;23.384;2022-10-16T13:52:29;3.70;;;2.80;;
6424;SDS011;12193;42.642;23.384;2022-10-16T13:54:59;5.80;;;3.40;;
6424;SDS011;12193;42.642;23.384;2022-10-16T13:57:28;4.83;;;2.90;;
6424;SDS011;12193;42.642;23.384;2022-10-16T13:59:58;5.27;;;2.83;;
6424;SDS011;12193;42.642;23.384;2022-10-16T14:02:30;3.57;;;2.60;;
6424;SDS011;12193;42.642;23.384;2022-10-16T14:05:03;6.40;;;2.97;;
6424;SDS011;12193;42.642;23.384;2022-10-16T14:07:37;5.83;;;2.80;;
6424;SDS011;12193;42.642;23.384;2022-10-16T14:10:18;3.87;;;2.60;;
6424;SDS011;12193;42.642;23.384;2022-10-16T14:12:54;3.40;;;2.70;;
6424;SDS011;12193;42.642;23.384;2022-10-16T14:15:25;7.13;;;2.83;;
6424;SDS011;12193;42.642;23.384;2022-10-16T14:17:57;3.20;;;2.87;;
6424;SDS011;12193;42.642;23.384;2022-10-16T14:20:28;6.63;;;2.97;;
6424;SDS011;12193;42.642;23.384;2022-10-16T14:23:00;4.70;;;3.47;;
6424;SDS011;12193;42.642;23.384;2022-10-16T14:25:31;7.80;;;3.17;;
6424;SDS011;12193;42.642;23.384;2022-10-16T14:28:02;8.47;;;4.27;;
6424;SDS011;12193;42.642;23.384;2022-10-16T14:30:34;9.07;;;2.93;;
6424;SDS011;12193;42.642;23.384;2022-10-16T14:33:20;6.70;;;2.70;;
6424;SDS011;12193;42.642;23.384;2022-10-16T14:36:01;9.20;;;2.70;;
6424;SDS011;12193;42.642;23.384;2022-10-16T14:38:32;5.33;;;2.80;;
6424;SDS011;12193;42.642;23.384;2022-10-16T14:41:02;6.17;;;3.00;;
6424;SDS011;12193;42.642;23.384;2022-10-16T14:43:33;3.93;;;2.70;;
6424;SDS011;12193;42.642;23.384;2022-10-16T14:46:05;3.90;;;2.63;;
6424;SDS011;12193;42.642;23.384;2022-10-16T14:48:43;3.57;;;2.50;;
6424;SDS011;12193;42.642;23.384;2022-10-16T14:51:14;6.60;;;3.00;;
6424;SDS011;12193;42.642;23.384;2022-10-16T14:53:44;13.77;;;2.80;;
6424;SDS011;12193;42.642;23.384;2022-10-16T14:56:14;5.77;;;3.00;;
6424;SDS011;12193;42.642;23.384;2022-10-16T14:58:46;7.47;;;3.20;;
6424;SDS011;12193;42.642;23.384;2022-10-16T15:01:16;7.83;;;2.97;;
6424;SDS011;12193;42.642;23.384;2022-10-16T15:03:49;4.80;;;2.90;;
6424;SDS011;12193;42.642;23.384;2022-10-16T15:06:18;5.07;;;2.63;;
6424;SDS011;12193;42.642;23.384;2022-10-16T15:08:47;4.33;;;2.83;;
6424;SDS011;12193;42.642;23.384;2022-10-16T15:11:17;8.40;;;3.37;;
6424;SDS011;12193;42.642;23.384;2022-10-16T15:13:47;10.47;;;4.00;;
6424;SDS011;12193;42.642;23.384;2022-10-16T15:16:16;7.83;;;3.03;;
6424;SDS011;12193;42.642;23.384;2022-10-16T15:18:48;6.87;;;3.43;;
6424;SDS011;12193;42.642;23.384;2022-10-16T15:21:20;14.13;;;3.47;;
6424;SDS011;12193;42.642;23.384;2022-10-16T15:23:53;9.23;;;2.90;;
6424;SDS011;12193;42.642;23.384;2022-10-16T15:26:22;7.03;;;2.77;;
6424;SDS011;12193;42.642;23.384;2022-10-16T15:28:52;9.40;;;3.50;;
6424;SDS011;12193;42.642;23.384;2022-10-16T15:31:21;5.97;;;3.77;;
6424;SDS011;12193;42.642;23.384;2022-10-16T15:33:54;9.40;;;3.63;;
6424;SDS011;12193;42.642;23.384;2022-10-16T15:36:30;5.47;;;3.57;;
6424;SDS011;12193;42.642;23.384;2022-10-16T15:39:02;6.23;;;3.47;;
6424;SDS011;12193;42.642;23.384;2022-10-16T15:41:32;13.50;;;4.50;;
6424;SDS011;12193;42.642;23.384;2022-10-16T15:44:01;12.47;;;3.87;;
6424;SDS011;12193;42.642;23.384;2022-10-16T15:46:30;13.60;;;3.87;;
6424;SDS011;12193;42.642;23.384;2022-10-16T15:49:02;13.00;;;4.10;;
6424;SDS011;12193;42.642;23.384;2022-10-16T15:51:32;6.67;;;3.50;;
6424;SDS011;12193;42.642;23.384;2022-10-16T15:54:02;14.03;;;5.00;;
6424;SDS011;12193;42.642;23.384;2022-10-16T15:56:31;12.50;;;3.90;;
6424;SDS011;12193;42.642;23.384;2022-10-16T15:59:02;14.97;;;6.87;;
6424;SDS011;12193;42.642;23.384;2022-10-16T16:01:32;14.60;;;7.90;;
6424;SDS011;12193;42.642;23.384;2022-10-16T16:04:05;15.00;;;6.10;;
6424;SDS011;12193;42.642;23.384;2022-10-16T16:06:34;14.47;;;4.77;;
6424;SDS011;12193;42.642;23.384;2022-10-16T16:09:10;14.93;;;5.40;;
6424;SDS011;12193;42.642;23.384;2022-10-16T16:11:39;14.83;;;6.33;;
6424;SDS011;12193;42.642;23.384;2022-10-16T16:14:09;8.17;;;5.53;;
6424;SDS011;12193;42.642;23.384;2022-10-16T16:16:41;10.33;;;4.90;;
6424;SDS011;12193;42.642;23.384;2022-10-16T16:19:12;13.83;;;6.03;;
6424;SDS011;12193;42.642;23.384;2022-10-16T16:21:46;14.03;;;5.53;;
6424;SDS011;12193;42.642;23.384;2022-10-16T16:24:16;11.10;;;5.33;;
6424;SDS011;12193;42.642;23.384;2022-10-16T16:26:45;8.70;;;4.97;;
6424;SDS011;12193;42.642;23.384;2022-10-16T16:29:15;11.10;;;5.60;;
6424;SDS011;12193;42.642;23.384;2022-10-16T16:31:45;16.83;;;5.47;;
6424;SDS011;12193;42.642;23.384;2022-10-16T16:34:17;11.30;;;5.77;;
6424;SDS011;12193;42.642;23.384;2022-10-16T16:36:46;11.20;;;6.00;;
6424;SDS011;12193;42.642;23.384;2022-10-16T16:39:15;12.87;;;6.23;;
6424;SDS011;12193;42.642;23.384;2022-10-16T16:41:45;15.47;;;6.60;;
6424;SDS011;12193;42.642;23.384;2022-10-16T16:44:15;10.23;;;5.57;;
6424;SDS011;12193;42.642;23.384;2022-10-16T16:46:45;15.80;;;6.50;;
6424;SDS011;12193;42.642;23.384;2022-10-16T16:49:17;11.80;;;5.43;;
6424;SDS011;12193;42.642;23.384;2022-10-16T16:51:46;11.70;;;5.30;;
6424;SDS011;12193;42.642;23.384;2022-10-16T16:54:17;18.23;;;7.37;;
6424;SDS011;12193;42.642;23.384;2022-10-16T16:56:46;13.33;;;5.83;;
6424;SDS011;12193;42.642;23.384;2022-10-16T16:59:16;10.47;;;5.20;;
6424;SDS011;12193;42.642;23.384;2022-10-16T17:01:47;12.10;;;5.63;;
6424;SDS011;12193;42.642;23.384;2022-10-16T17:04:19;11.63;;;5.97;;
6424;SDS011;12193;42.642;23.384;2022-10-16T17:06:49;11.30;;;6.00;;
6424;SDS011;12193;42.642;23.384;2022-10-16T17:09:18;13.07;;;6.20;;
6424;SDS011;12193;42.642;23.384;2022-10-16T17:11:47;10.37;;;6.37;;
6424;SDS011;12193;42.642;23.384;2022-10-16T17:14:17;10.37;;;5.97;;
6424;SDS011;12193;42.642;23.384;2022-10-16T17:16:46;14.03;;;6.03;;
6424;SDS011;12193;42.642;23.384;2022-10-16T17:19:15;10.23;;;5.10;;
6424;SDS011;12193;42.642;23.384;2022-10-16T17:21:50;8.30;;;4.17;;
6424;SDS011;12193;42.642;23.384;2022-10-16T17:24:19;7.80;;;4.90;;
6424;SDS011;12193;42.642;23.384;2022-10-16T17:26:49;10.97;;;5.17;;
6424;SDS011;12193;42.642;23.384;2022-10-16T17:29:18;10.00;;;5.10;;
6424;SDS011;12193;42.642;23.384;2022-10-16T17:31:47;9.93;;;5.77;;
6424;SDS011;12193;42.642;23.384;2022-10-16T17:34:17;11.53;;;6.90;;
6424;SDS011;12193;42.642;23.384;2022-10-16T17:36:46;11.90;;;6.83;;
6424;SDS011;12193;42.642;23.384;2022-10-16T17:39:18;14.50;;;7.40;;
6424;SDS011;12193;42.642;23.384;2022-10-16T17:41:48;14.30;;;6.83;;
6424;SDS011;12193;42.642;23.384;2022-10-16T17:44:17;10.77;;;6.17;;
6424;SDS011;12193;42.642;23.384;2022-10-16T17:46:49;10.97;;;4.73;;
6424;SDS011;12193;42.642;23.384;2022-10-16T17:49:20;8.87;;;4.63;;
6424;SDS011;12193;42.642;23.384;2022-10-16T17:51:50;6.93;;;4.33;;
6424;SDS011;12193;42.642;23.384;2022-10-16T17:54:23;7.27;;;4.40;;
6424;SDS011;12193;42.642;23.384;2022-10-16T17:56:52;9.63;;;4.20;;
6424;SDS011;12193;42.642;23.384;2022-10-16T17:59:22;6.37;;;3.73;;
6424;SDS011;12193;42.642;23.384;2022-10-16T18:01:51;5.10;;;3.07;;
6424;SDS011;12193;42.642;23.384;2022-10-16T18:04:20;5.47;;;3.50;;
6424;SDS011;12193;42.642;23.384;2022-10-16T18:06:49;7.90;;;3.77;;
6424;SDS011;12193;42.642;23.384;2022-10-16T18:09:23;5.40;;;3.50;;
6424;SDS011;12193;42.642;23.384;2022-10-16T18:11:52;6.23;;;3.30;;
6424;SDS011;12193;42.642;23.384;2022-10-16T18:14:25;7.20;;;3.83;;
6424;SDS011;12193;42.642;23.384;2022-10-16T18:16:56;7.60;;;3.97;;
6424;SDS011;12193;42.642;23.384;2022-10-16T18:19:26;7.60;;;3.87;;
6424;SDS011;12193;42.642;23.384;2022-10-16T18:21:55;7.97;;;3.93;;
6424;SDS011;12193;42.642;23.384;2022-10-16T18:24:27;7.30;;;3.90;;
6424;SDS011;12193;42.642;23.384;2022-10-16T18:26:56;8.77;;;3.97;;
6424;SDS011;12193;42.642;23.384;2022-10-16T18:29:25;6.17;;;3.60;;
6424;SDS011;12193;42.642;23.384;2022-10-16T18:31:55;7.70;;;3.90;;
6424;SDS011;12193;42.642;23.384;2022-10-16T18:34:24;8.27;;;4.13;;
6424;SDS011;12193;42.642;23.384;2022-10-16T18:36:53;7.70;;;3.83;;
6424;SDS011;12193;42.642;23.384;2022-10-16T18:39:23;6.57;;;4.13;;
6424;SDS011;12193;42.642;23.384;2022-10-16T18:41:54;5.50;;;3.60;;
6424;SDS011;12193;42.642;23.384;2022-10-16T18:44:24;8.07;;;4.50;;
6424;SDS011;12193;42.642;23.384;2022-10-16T18:46:55;8.80;;;4.20;;
6424;SDS011;12193;42.642;23.384;2022-10-16T18:49:24;7.10;;;4.23;;
6424;SDS011;12193;42.642;23.384;2022-10-16T18:51:54;15.10;;;6.53;;
6424;SDS011;12193;42.642;23.384;2022-10-16T18:54:25;7.73;;;3.70;;
6424;SDS011;12193;42.642;23.384;2022-10-16T18:56:57;6.07;;;3.97;;
6424;SDS011;12193;42.642;23.384;2022-10-16T18:59:26;8.23;;;4.30;;
6424;SDS011;12193;42.642;23.384;2022-10-16T19:01:55;7.73;;;4.00;;
6424;SDS011;12193;42.642;23.384;2022-10-16T19:04:24;8.00;;;4.43;;
6424;SDS011;12193;42.642;23.384;2022-10-16T19:06:53;5.80;;;3.90;;
6424;SDS011;12193;42.642;23.384;2022-10-16T19:09:23;7.57;;;4.50;;
6424;SDS011;12193;42.642;23.384;2022-10-16T19:11:53;8.00;;;4.30;;
6424;SDS011;12193;42.642;23.384;2022-10-16T19:14:24;10.57;;;3.87;;
6424;SDS011;12193;42.642;23.384;2022-10-16T19:16:55;5.50;;;3.73;;
6424;SDS011;12193;42.642;23.384;2022-10-16T19:19:24;6.33;;;4.37;;
6424;SDS011;12193;42.642;23.384;2022-10-16T19:21:53;7.07;;;4.13;;
6424;SDS011;12193;42.642;23.384;2022-10-16T19:24:36;6.37;;;4.10;;
6424;SDS011;12193;42.642;23.384;2022-10-16T19:27:06;8.47;;;4.23;;
6424;SDS011;12193;42.642;23.384;2022-10-16T19:29:37;6.20;;;3.93;;
6424;SDS011;12193;42.642;23.384;2022-10-16T19:32:07;5.10;;;3.20;;